Aérodrome :
LOGIN :

S'inscrire | Disclaimer

   EN    FR    IT 

 










Légende :    VFR   VFR Marginal   IFR   IFR Intensif   IFR Très Intensif
Visi : 
Plafond : 
>= 8 km
>= 3000ft
5 à 8 km
1000 à 3000 ft
1500m à 5 km
500 à 1000 ft
800 à 1500m
200 à 500 ft
< 800m
< 200 ft
Symboles :   Orages  Brouillard  Fortes neiges  Fortes précipitations  Vent > 20 kt
SIGMETs :   Divers  Orages  Givrage  Turbulence  Onde Orograph.  Cendres Volcan.






- Altitude de l'aérodrome : 992 ft


LIRV - Roma Viterbo Air Force Base (military)

DERNIER METAR :
  • 141055Z 05006KT 9999 SCT040 13/M02 Q1020 RMK SCT MON E SE LIB NC VIS MIN 9999 WIND THR04 /////KT BLU

METARs EXPIRÉS :
  • 140955Z 03008KT 9999 FEW040 12/M01 Q1020
  • 140855Z 06011KT CAVOK 10/M02 Q1020 RMK SKC MON E SE LIB NC VIS MIN 9999 WIND THR04 /////KT BLU

TAF TAF LIRV
Valide du 14 à 09h jusqu'au 14 à 18h UTC


140800Z 1409/1418 05012KT CAVOK
TEMPO 1413/1415 FEW020TCU



MET'MAP, la Météo Aéronautique d'un coup d'oeil ! - Copyright ORBIFLY Décembre 2007 - Disclaimer

ORBIFLY MET'MAP TEAM :

Programmation & Développement : Alexandra Zaïnal
Sur une idée originale de : Baudouin d'Aumeries
Assistance à la programmation : Marc-Olivier Méhu
Soutien technique & logistique : Manuel Goepfert

Contact : metmap@orbifly.com




SOURCES & CREDITS :

   NOAA